CheckWX is a tool to help pilots better visualize weather data.  It is not intended as a substitute for an official pre-flight weather briefing.

10:00:56 UTC

EGPI METAR
Islay Airport
Port Ellen, United Kingdom
Current

11 mins ago

EGPI 180950Z 11009KT 9999 FEW020 11/09 Q0993
Observed
Oct-18 @ 09:50 UTC
Wind
  • 110° at 9 KTS
Visibility
10,000+ meters
Flight Rules
VFR
Cloud Levels
  • Few at 2,000' AGL
Temperature
11°C / 52°F
Dewpoint
C / 48°F
Humidity
88%
Altimeter
29.32" Hg
Pressure
992.92 hPa
Previous

2 hours ago

EGPI 180820Z 13008KT 9999 FEW020 09/08 Q0993
Observed
Oct-18 @ 08:20 UTC
Wind
  • 130° at 8 KTS
Visibility
10,000+ meters
Flight Rules
VFR
Cloud Levels
  • Few at 2,000' AGL
Temperature
C / 48°F
Dewpoint
C / 46°F
Humidity
94%
Altimeter
29.32" Hg
Pressure
992.92 hPa
Previous

2 hours ago

EGPI 180750Z 10007KT 9999 FEW018 08/07 Q0993
Observed
Oct-18 @ 07:50 UTC
Wind
  • 100° at 7 KTS
Visibility
10,000+ meters
Flight Rules
VFR
Cloud Levels
  • Few at 1,800' AGL
Temperature
C / 46°F
Dewpoint
C / 45°F
Humidity
93%
Altimeter
29.32" Hg
Pressure
992.92 hPa